sensor_id;sensor_type;location;lat;lon;timestamp;pressure;altitude;pressure_sealevel;temperature;humidity
51099;BME280;37146;48.210;16.234;2022-11-20T00:01:36;98443.59;;;-0.74;100.00
51099;BME280;37146;48.210;16.234;2022-11-20T00:04:02;98445.38;;;-0.76;100.00
51099;BME280;37146;48.210;16.234;2022-11-20T00:06:27;98449.72;;;-0.75;100.00
51099;BME280;37146;48.210;16.234;2022-11-20T00:08:54;98457.53;;;-0.70;100.00
51099;BME280;37146;48.210;16.234;2022-11-20T00:11:20;98456.78;;;-0.80;100.00
51099;BME280;37146;48.210;16.234;2022-11-20T00:13:48;98461.31;;;-0.91;100.00
51099;BME280;37146;48.210;16.234;2022-11-20T00:16:14;98448.72;;;-0.68;100.00
51099;BME280;37146;48.210;16.234;2022-11-20T00:18:40;98442.69;;;-0.74;100.00
51099;BME280;37146;48.210;16.234;2022-11-20T00:21:09;98447.06;;;-0.73;100.00
51099;BME280;37146;48.210;16.234;2022-11-20T00:23:35;98457.59;;;-0.76;100.00
51099;BME280;37146;48.210;16.234;2022-11-20T00:26:01;98467.94;;;-0.63;100.00
51099;BME280;37146;48.210;16.234;2022-11-20T00:28:26;98476.97;;;-0.84;100.00
51099;BME280;37146;48.210;16.234;2022-11-20T00:30:51;98473.44;;;-0.80;100.00
51099;BME280;37146;48.210;16.234;2022-11-20T00:33:16;98477.47;;;-0.58;100.00
51099;BME280;37146;48.210;16.234;2022-11-20T00:35:42;98481.31;;;-0.80;100.00
51099;BME280;37146;48.210;16.234;2022-11-20T00:38:07;98485.59;;;-0.75;100.00
51099;BME280;37146;48.210;16.234;2022-11-20T00:40:32;98476.06;;;-0.81;100.00
51099;BME280;37146;48.210;16.234;2022-11-20T00:42:57;98470.81;;;-0.80;100.00
51099;BME280;37146;48.210;16.234;2022-11-20T00:45:22;98474.31;;;-0.81;100.00
51099;BME280;37146;48.210;16.234;2022-11-20T00:47:48;98487.34;;;-0.74;100.00
51099;BME280;37146;48.210;16.234;2022-11-20T00:50:13;98484.00;;;-0.86;100.00
51099;BME280;37146;48.210;16.234;2022-11-20T00:52:38;98490.19;;;-0.88;100.00
51099;BME280;37146;48.210;16.234;2022-11-20T00:55:03;98492.75;;;-0.87;100.00
51099;BME280;37146;48.210;16.234;2022-11-20T00:57:29;98481.66;;;-1.07;100.00
51099;BME280;37146;48.210;16.234;2022-11-20T00:59:54;98490.50;;;-1.12;100.00
51099;BME280;37146;48.210;16.234;2022-11-20T01:02:19;98493.00;;;-1.04;100.00
51099;BME280;37146;48.210;16.234;2022-11-20T01:04:44;98495.47;;;-0.91;100.00
51099;BME280;37146;48.210;16.234;2022-11-20T01:07:10;98501.66;;;-0.97;100.00
51099;BME280;37146;48.210;16.234;2022-11-20T01:09:35;98504.22;;;-0.91;100.00
51099;BME280;37146;48.210;16.234;2022-11-20T01:12:00;98504.97;;;-0.83;100.00
51099;BME280;37146;48.210;16.234;2022-11-20T01:14:26;98507.13;;;-1.13;100.00
51099;BME280;37146;48.210;16.234;2022-11-20T01:16:51;98503.38;;;-0.93;100.00
51099;BME280;37146;48.210;16.234;2022-11-20T01:19:18;98501.47;;;-0.82;100.00
51099;BME280;37146;48.210;16.234;2022-11-20T01:21:44;98492.69;;;-0.81;100.00
51099;BME280;37146;48.210;16.234;2022-11-20T01:24:11;98492.97;;;-0.99;100.00
51099;BME280;37146;48.210;16.234;2022-11-20T01:26:37;98492.84;;;-0.90;100.00
51099;BME280;37146;48.210;16.234;2022-11-20T01:29:03;98495.59;;;-1.01;100.00
51099;BME280;37146;48.210;16.234;2022-11-20T01:31:30;98493.81;;;-0.99;100.00
51099;BME280;37146;48.210;16.234;2022-11-20T01:33:56;98505.91;;;-0.87;100.00
51099;BME280;37146;48.210;16.234;2022-11-20T01:36:23;98489.25;;;-0.86;100.00
51099;BME280;37146;48.210;16.234;2022-11-20T01:38:51;98503.34;;;-0.90;100.00
51099;BME280;37146;48.210;16.234;2022-11-20T01:41:18;98494.72;;;-1.01;100.00
51099;BME280;37146;48.210;16.234;2022-11-20T01:44:02;98491.25;;;-1.03;100.00
51099;BME280;37146;48.210;16.234;2022-11-20T01:46:27;98489.50;;;-1.04;100.00
51099;BME280;37146;48.210;16.234;2022-11-20T01:51:25;98498.16;;;-0.96;100.00
51099;BME280;37146;48.210;16.234;2022-11-20T01:53:53;98499.88;;;-0.95;100.00
51099;BME280;37146;48.210;16.234;2022-11-20T01:56:20;98490.13;;;-0.85;100.00
51099;BME280;37146;48.210;16.234;2022-11-20T01:58:51;98491.09;;;-0.91;100.00
51099;BME280;37146;48.210;16.234;2022-11-20T02:01:17;98491.03;;;-0.88;100.00
51099;BME280;37146;48.210;16.234;2022-11-20T02:03:43;98493.69;;;-0.89;100.00
51099;BME280;37146;48.210;16.234;2022-11-20T02:08:40;98496.22;;;-0.82;100.00
51099;BME280;37146;48.210;16.234;2022-11-20T02:11:05;98504.16;;;-0.88;100.00
51099;BME280;37146;48.210;16.234;2022-11-20T02:13:30;98508.44;;;-0.81;100.00
51099;BME280;37146;48.210;16.234;2022-11-20T02:16:19;98506.75;;;-0.85;100.00
51099;BME280;37146;48.210;16.234;2022-11-20T02:18:46;98499.81;;;-0.89;100.00
51099;BME280;37146;48.210;16.234;2022-11-20T02:21:13;98506.84;;;-0.91;100.00
51099;BME280;37146;48.210;16.234;2022-11-20T02:23:54;98505.16;;;-0.98;100.00
51099;BME280;37146;48.210;16.234;2022-11-20T02:26:20;98503.06;;;-0.71;100.00
51099;BME280;37146;48.210;16.234;2022-11-20T02:28:47;98496.22;;;-0.82;100.00
51099;BME280;37146;48.210;16.234;2022-11-20T02:31:12;98500.59;;;-0.84;100.00
51099;BME280;37146;48.210;16.234;2022-11-20T02:33:37;98503.34;;;-0.91;100.00
51099;BME280;37146;48.210;16.234;2022-11-20T02:36:03;98495.31;;;-0.82;100.00
51099;BME280;37146;48.210;16.234;2022-11-20T02:38:28;98505.00;;;-0.86;100.00
51099;BME280;37146;48.210;16.234;2022-11-20T02:40:53;98498.66;;;-0.71;100.00
51099;BME280;37146;48.210;16.234;2022-11-20T02:43:19;98494.34;;;-0.72;100.00
51099;BME280;37146;48.210;16.234;2022-11-20T02:45:44;98497.69;;;-0.62;100.00
51099;BME280;37146;48.210;16.234;2022-11-20T02:48:09;98499.81;;;-0.89;100.00
51099;BME280;37146;48.210;16.234;2022-11-20T02:50:38;98496.22;;;-0.82;100.00
51099;BME280;37146;48.210;16.234;2022-11-20T02:53:04;98489.13;;;-0.76;100.00
51099;BME280;37146;48.210;16.234;2022-11-20T02:55:29;98488.38;;;-0.83;100.00
51099;BME280;37146;48.210;16.234;2022-11-20T02:57:55;98490.22;;;-0.91;100.00
51099;BME280;37146;48.210;16.234;2022-11-20T03:00:20;98484.00;;;-0.86;100.00
51099;BME280;37146;48.210;16.234;2022-11-20T03:02:46;98473.50;;;-0.86;100.00
51099;BME280;37146;48.210;16.234;2022-11-20T03:05:11;98479.75;;;-0.93;100.00
51099;BME280;37146;48.210;16.234;2022-11-20T03:07:36;98469.31;;;-0.98;100.00
51099;BME280;37146;48.210;16.234;2022-11-20T03:10:01;98465.72;;;-0.94;100.00
51099;BME280;37146;48.210;16.234;2022-11-20T03:12:27;98466.59;;;-0.91;100.00
51099;BME280;37146;48.210;16.234;2022-11-20T03:14:52;98459.53;;;-0.88;100.00
51099;BME280;37146;48.210;16.234;2022-11-20T03:17:17;98444.78;;;-0.97;100.00
51099;BME280;37146;48.210;16.234;2022-11-20T03:19:42;98449.94;;;-0.90;100.00
51099;BME280;37146;48.210;16.234;2022-11-20T03:22:08;98436.03;;;-0.96;100.00
51099;BME280;37146;48.210;16.234;2022-11-20T03:24:33;98437.84;;;-1.01;100.00
51099;BME280;37146;48.210;16.234;2022-11-20T03:26:58;98444.75;;;-0.95;100.00
51099;BME280;37146;48.210;16.234;2022-11-20T03:29:23;98443.88;;;-0.94;100.00
51099;BME280;37146;48.210;16.234;2022-11-20T03:31:48;98454.41;;;-0.96;100.00
51099;BME280;37146;48.210;16.234;2022-11-20T03:34:14;98453.56;;;-0.98;100.00
51099;BME280;37146;48.210;16.234;2022-11-20T03:36:40;98451.78;;;-0.96;100.00
51099;BME280;37146;48.210;16.234;2022-11-20T03:39:05;98449.16;;;-0.97;100.00
51099;BME280;37146;48.210;16.234;2022-11-20T03:41:34;98444.53;;;-0.81;100.00
51099;BME280;37146;48.210;16.234;2022-11-20T03:44:01;98440.34;;;-0.93;100.00
51099;BME280;37146;48.210;16.234;2022-11-20T03:46:27;98446.34;;;-0.83;100.00
51099;BME280;37146;48.210;16.234;2022-11-20T03:48:52;98439.44;;;-0.89;100.00
51099;BME280;37146;48.210;16.234;2022-11-20T03:51:19;98445.50;;;-0.87;100.00
51099;BME280;37146;48.210;16.234;2022-11-20T03:53:45;98447.09;;;-0.76;100.00
51099;BME280;37146;48.210;16.234;2022-11-20T03:56:10;98438.47;;;-0.85;100.00
51099;BME280;37146;48.210;16.234;2022-11-20T03:58:36;98444.63;;;-0.86;100.00
51099;BME280;37146;48.210;16.234;2022-11-20T04:01:14;98439.25;;;-0.78;100.00
51099;BME280;37146;48.210;16.234;2022-11-20T04:03:41;98436.66;;;-0.80;100.00
51099;BME280;37146;48.210;16.234;2022-11-20T04:06:08;98435.72;;;-0.74;100.00
51099;BME280;37146;48.210;16.234;2022-11-20T04:08:34;98435.97;;;-0.91;100.00
51099;BME280;37146;48.210;16.234;2022-11-20T04:11:09;98431.28;;;-0.70;100.00
51099;BME280;37146;48.210;16.234;2022-11-20T04:13:34;98423.44;;;-0.72;100.00
51099;BME280;37146;48.210;16.234;2022-11-20T04:15:59;98420.06;;;-0.82;100.00
51099;BME280;37146;48.210;16.234;2022-11-20T04:18:25;98427.06;;;-0.82;100.00
51099;BME280;37146;48.210;16.234;2022-11-20T04:20:50;98415.84;;;-0.92;100.00
51099;BME280;37146;48.210;16.234;2022-11-20T04:23:15;98424.44;;;-0.81;100.00
51099;BME280;37146;48.210;16.234;2022-11-20T04:25:40;98410.25;;;-0.70;100.00
51099;BME280;37146;48.210;16.234;2022-11-20T04:28:05;98412.16;;;-0.79;100.00
51099;BME280;37146;48.210;16.234;2022-11-20T04:30:31;98410.97;;;-0.59;100.00
51099;BME280;37146;48.210;16.234;2022-11-20T04:32:56;98407.63;;;-0.70;100.00
51099;BME280;37146;48.210;16.234;2022-11-20T04:35:21;98405.84;;;-0.68;100.00
51099;BME280;37146;48.210;16.234;2022-11-20T04:37:46;98404.09;;;-0.68;100.00
51099;BME280;37146;48.210;16.234;2022-11-20T04:40:12;98411.84;;;-0.60;100.00
51099;BME280;37146;48.210;16.234;2022-11-20T04:42:37;98411.97;;;-0.66;100.00
51099;BME280;37146;48.210;16.234;2022-11-20T04:45:02;98393.47;;;-0.60;100.00
51099;BME280;37146;48.210;16.234;2022-11-20T04:47:27;98382.31;;;-0.74;100.00
51099;BME280;37146;48.210;16.234;2022-11-20T04:49:53;98377.94;;;-0.74;100.00
51099;BME280;37146;48.210;16.234;2022-11-20T04:52:18;98382.22;;;-0.68;100.00
51099;BME280;37146;48.210;16.234;2022-11-20T04:54:43;98374.34;;;-0.70;100.00
51099;BME280;37146;48.210;16.234;2022-11-20T04:57:08;98373.63;;;-0.78;100.00
51099;BME280;37146;48.210;16.234;2022-11-20T04:59:34;98378.63;;;-0.64;100.00
51099;BME280;37146;48.210;16.234;2022-11-20T05:01:59;98382.22;;;-0.68;100.00
51099;BME280;37146;48.210;16.234;2022-11-20T05:04:24;98368.25;;;-0.70;100.00
51099;BME280;37146;48.210;16.234;2022-11-20T05:06:49;98367.25;;;-0.63;100.00
51099;BME280;37146;48.210;16.234;2022-11-20T05:09:15;98370.84;;;-0.69;100.00
51099;BME280;37146;48.210;16.234;2022-11-20T05:11:40;98372.53;;;-0.65;100.00
51099;BME280;37146;48.210;16.234;2022-11-20T05:14:05;98386.47;;;-0.61;100.00
51099;BME280;37146;48.210;16.234;2022-11-20T05:16:30;98385.78;;;-0.72;100.00
51099;BME280;37146;48.210;16.234;2022-11-20T05:18:56;98397.13;;;-0.70;100.00
51099;BME280;37146;48.210;16.234;2022-11-20T05:21:21;98392.53;;;-0.56;100.00
51099;BME280;37146;48.210;16.234;2022-11-20T05:23:46;98393.22;;;-0.46;100.00
51099;BME280;37146;48.210;16.234;2022-11-20T05:26:13;98393.44;;;-0.58;100.00
51099;BME280;37146;48.210;16.234;2022-11-20T05:28:38;98397.66;;;-0.50;100.00
51099;BME280;37146;48.210;16.234;2022-11-20T05:31:07;98400.53;;;-0.64;100.00
51099;BME280;37146;48.210;16.234;2022-11-20T05:33:34;98396.22;;;-0.66;100.00
51099;BME280;37146;48.210;16.234;2022-11-20T05:35:59;98402.28;;;-0.63;100.00
51099;BME280;37146;48.210;16.234;2022-11-20T05:38:24;98398.66;;;-0.57;100.00
51099;BME280;37146;48.210;16.234;2022-11-20T05:40:50;98403.72;;;-0.46;100.00
51099;BME280;37146;48.210;16.234;2022-11-20T05:43:15;98397.00;;;-0.63;100.00
51099;BME280;37146;48.210;16.234;2022-11-20T05:45:40;98400.28;;;-0.50;100.00
51099;BME280;37146;48.210;16.234;2022-11-20T05:48:05;98404.81;;;-0.58;100.00
51099;BME280;37146;48.210;16.234;2022-11-20T05:50:30;98397.78;;;-0.56;100.00
51099;BME280;37146;48.210;16.234;2022-11-20T05:52:57;98404.91;;;-0.64;100.00
51099;BME280;37146;48.210;16.234;2022-11-20T05:55:23;98407.44;;;-0.59;100.00
51099;BME280;37146;48.210;16.234;2022-11-20T05:57:48;98417.13;;;-0.63;100.00
51099;BME280;37146;48.210;16.234;2022-11-20T06:00:14;98413.38;;;-0.48;100.00
51099;BME280;37146;48.210;16.234;2022-11-20T06:02:39;98410.00;;;-0.55;100.00
51099;BME280;37146;48.210;16.234;2022-11-20T06:05:04;98412.59;;;-0.52;100.00
51099;BME280;37146;48.210;16.234;2022-11-20T06:07:30;98413.44;;;-0.50;100.00
51099;BME280;37146;48.210;16.234;2022-11-20T06:09:55;98408.19;;;-0.50;100.00
51099;BME280;37146;48.210;16.234;2022-11-20T06:12:20;98416.13;;;-0.54;100.00
51099;BME280;37146;48.210;16.234;2022-11-20T06:14:45;98419.66;;;-0.55;100.00
51099;BME280;37146;48.210;16.234;2022-11-20T06:17:11;98417.84;;;-0.50;100.00
51099;BME280;37146;48.210;16.234;2022-11-20T06:19:36;98422.19;;;-0.51;100.00
51099;BME280;37146;48.210;16.234;2022-11-20T06:22:01;98420.56;;;-0.58;100.00
51099;BME280;37146;48.210;16.234;2022-11-20T06:24:26;98421.47;;;-0.60;100.00
51099;BME280;37146;48.210;16.234;2022-11-20T06:26:52;98427.56;;;-0.58;100.00
51099;BME280;37146;48.210;16.234;2022-11-20T06:29:17;98429.31;;;-0.56;100.00
51099;BME280;37146;48.210;16.234;2022-11-20T06:31:42;98427.66;;;-0.63;100.00
51099;BME280;37146;48.210;16.234;2022-11-20T06:34:08;98434.56;;;-0.56;100.00
51099;BME280;37146;48.210;16.234;2022-11-20T06:36:33;98439.69;;;-0.50;100.00
51099;BME280;37146;48.210;16.234;2022-11-20T06:38:59;98443.41;;;-0.63;100.00
51099;BME280;37146;48.210;16.234;2022-11-20T06:41:24;98442.44;;;-0.57;100.00
51099;BME280;37146;48.210;16.234;2022-11-20T06:43:50;98445.31;;;-0.73;100.00
51099;BME280;37146;48.210;16.234;2022-11-20T06:46:15;98447.88;;;-0.70;100.00
51099;BME280;37146;48.210;16.234;2022-11-20T06:48:44;98452.25;;;-0.67;100.00
51099;BME280;37146;48.210;16.234;2022-11-20T06:51:09;98456.72;;;-0.75;100.00
51099;BME280;37146;48.210;16.234;2022-11-20T06:53:35;98466.97;;;-0.58;100.00
51099;BME280;37146;48.210;16.234;2022-11-20T06:56:01;98466.84;;;-0.51;100.00
51099;BME280;37146;48.210;16.234;2022-11-20T06:58:26;98469.66;;;-0.63;100.00
51099;BME280;37146;48.210;16.234;2022-11-20T07:00:52;98468.75;;;-0.60;100.00
51099;BME280;37146;48.210;16.234;2022-11-20T07:03:17;98467.03;;;-0.63;100.00
51099;BME280;37146;48.210;16.234;2022-11-20T07:05:43;98467.00;;;-0.60;100.00
51099;BME280;37146;48.210;16.234;2022-11-20T07:08:10;98463.50;;;-0.59;100.00
51099;BME280;37146;48.210;16.234;2022-11-20T07:10:35;98464.19;;;-0.48;100.00
51099;BME280;37146;48.210;16.234;2022-11-20T07:13:00;98467.66;;;-0.45;100.00
51099;BME280;37146;48.210;16.234;2022-11-20T07:15:25;98473.19;;;-0.64;100.00
51099;BME280;37146;48.210;16.234;2022-11-20T07:17:51;98476.66;;;-0.62;100.00
51099;BME280;37146;48.210;16.234;2022-11-20T07:20:16;98485.50;;;-0.68;100.00
51099;BME280;37146;48.210;16.234;2022-11-20T07:22:41;98481.13;;;-0.67;100.00
51099;BME280;37146;48.210;16.234;2022-11-20T07:25:07;98477.41;;;-0.54;100.00
51099;BME280;37146;48.210;16.234;2022-11-20T07:27:32;98486.31;;;-0.64;100.00
51099;BME280;37146;48.210;16.234;2022-11-20T07:29:58;98479.09;;;-0.50;100.00
51099;BME280;37146;48.210;16.234;2022-11-20T07:32:23;98481.78;;;-0.53;100.00
51099;BME280;37146;48.210;16.234;2022-11-20T07:34:49;98481.09;;;-0.66;100.00
51099;BME280;37146;48.210;16.234;2022-11-20T07:37:14;98490.47;;;-0.49;100.00
51099;BME280;37146;48.210;16.234;2022-11-20T07:39:40;98495.72;;;-0.48;100.00
51099;BME280;37146;48.210;16.234;2022-11-20T07:42:08;98488.88;;;-0.58;100.00
51099;BME280;37146;48.210;16.234;2022-11-20T07:44:34;98498.44;;;-0.55;100.00
51099;BME280;37146;48.210;16.234;2022-11-20T07:46:59;98494.91;;;-0.51;100.00
51099;BME280;37146;48.210;16.234;2022-11-20T07:49:24;98499.41;;;-0.61;100.00
51099;BME280;37146;48.210;16.234;2022-11-20T07:51:50;98501.03;;;-0.54;100.00
51099;BME280;37146;48.210;16.234;2022-11-20T07:54:16;98497.53;;;-0.51;100.00
51099;BME280;37146;48.210;16.234;2022-11-20T07:56:41;98492.25;;;-0.50;100.00
51099;BME280;37146;48.210;16.234;2022-11-20T07:59:06;98505.41;;;-0.53;100.00
51099;BME280;37146;48.210;16.234;2022-11-20T08:01:32;98494.19;;;-0.63;100.00
51099;BME280;37146;48.210;16.234;2022-11-20T08:03:57;98494.06;;;-0.55;100.00
51099;BME280;37146;48.210;16.234;2022-11-20T08:06:22;98497.63;;;-0.59;100.00
51099;BME280;37146;48.210;16.234;2022-11-20T08:08:49;98500.09;;;-0.48;100.00
51099;BME280;37146;48.210;16.234;2022-11-20T08:11:14;98499.22;;;-0.49;100.00
51099;BME280;37146;48.210;16.234;2022-11-20T08:13:58;98499.91;;;-0.36;100.00
51099;BME280;37146;48.210;16.234;2022-11-20T08:16:39;98503.44;;;-0.38;100.00
51099;BME280;37146;48.210;16.234;2022-11-20T08:19:05;98506.81;;;-0.28;100.00
51099;BME280;37146;48.210;16.234;2022-11-20T08:21:30;98509.41;;;-0.27;100.00
51099;BME280;37146;48.210;16.234;2022-11-20T08:23:56;98505.84;;;-0.23;100.00
51099;BME280;37146;48.210;16.234;2022-11-20T08:26:22;98506.59;;;-0.14;100.00
51099;BME280;37146;48.210;16.234;2022-11-20T08:28:47;98510.88;;;-0.10;100.00
51099;BME280;37146;48.210;16.234;2022-11-20T08:31:12;98505.63;;;-0.10;100.00
51099;BME280;37146;48.210;16.234;2022-11-20T08:33:38;98509.25;;;-0.18;100.00
51099;BME280;37146;48.210;16.234;2022-11-20T08:36:03;98506.47;;;-0.07;100.00
51099;BME280;37146;48.210;16.234;2022-11-20T08:38:29;98504.09;;;-0.24;100.00
51099;BME280;37146;48.210;16.234;2022-11-20T08:40:56;98505.88;;;-0.26;100.00
51099;BME280;37146;48.210;16.234;2022-11-20T08:43:39;98509.25;;;-0.18;100.00
51099;BME280;37146;48.210;16.234;2022-11-20T08:46:05;98507.56;;;-0.22;100.00
51099;BME280;37146;48.210;16.234;2022-11-20T08:48:30;98507.69;;;-0.29;100.00
51099;BME280;37146;48.210;16.234;2022-11-20T08:50:57;98504.03;;;-0.21;100.00
51099;BME280;37146;48.210;16.234;2022-11-20T08:53:22;98505.78;;;-0.20;100.00
51099;BME280;37146;48.210;16.234;2022-11-20T08:55:47;98509.09;;;-0.08;100.00
51099;BME280;37146;48.210;16.234;2022-11-20T08:58:12;98501.31;;;-0.16;100.00
51099;BME280;37146;48.210;16.234;2022-11-20T09:00:38;98500.44;;;-0.13;100.00
51099;BME280;37146;48.210;16.234;2022-11-20T09:03:03;98500.44;;;-0.13;100.00
51099;BME280;37146;48.210;16.234;2022-11-20T09:05:28;98502.88;;;-0.03;100.00
51099;BME280;37146;48.210;16.234;2022-11-20T09:07:57;98499.25;;;0.05;100.00
51099;BME280;37146;48.210;16.234;2022-11-20T09:10:23;98499.34;;;-0.02;100.00
51099;BME280;37146;48.210;16.234;2022-11-20T09:12:48;98501.72;;;0.12;100.00
51099;BME280;37146;48.210;16.234;2022-11-20T09:15:14;98493.97;;;0.06;100.00
51099;BME280;37146;48.210;16.234;2022-11-20T09:17:39;98495.63;;;0.12;100.00
51099;BME280;37146;48.210;16.234;2022-11-20T09:20:04;98493.84;;;0.12;100.00
51099;BME280;37146;48.210;16.234;2022-11-20T09:22:29;98490.31;;;0.15;100.00
51099;BME280;37146;48.210;16.234;2022-11-20T09:24:55;98490.28;;;0.17;100.00
51099;BME280;37146;48.210;16.234;2022-11-20T09:27:20;98489.41;;;0.16;100.00
51099;BME280;37146;48.210;16.234;2022-11-20T09:29:46;98481.53;;;0.16;100.00
51099;BME280;37146;48.210;16.234;2022-11-20T09:32:11;98480.66;;;0.15;100.00
51099;BME280;37146;48.210;16.234;2022-11-20T09:34:36;98484.66;;;0.37;100.00
51099;BME280;37146;48.210;16.234;2022-11-20T09:37:02;98485.72;;;0.26;100.00
51099;BME280;37146;48.210;16.234;2022-11-20T09:39:27;98490.19;;;0.21;100.00
51099;BME280;37146;48.210;16.234;2022-11-20T09:44:26;98486.63;;;0.24;100.00
51099;BME280;37146;48.210;16.234;2022-11-20T09:55:02;98473.47;;;0.25;100.00
51099;BME280;37146;48.210;16.234;2022-11-20T09:57:36;98461.97;;;0.29;100.00
51099;BME280;37146;48.210;16.234;2022-11-20T10:00:02;98464.59;;;0.31;100.00
51099;BME280;37146;48.210;16.234;2022-11-20T10:02:53;98466.47;;;0.24;100.00
51099;BME280;37146;48.210;16.234;2022-11-20T10:05:17;98465.44;;;0.33;100.00
51099;BME280;37146;48.210;16.234;2022-11-20T10:07:44;98462.72;;;0.36;100.00
51099;BME280;37146;48.210;16.234;2022-11-20T10:10:16;98461.06;;;0.30;100.00
51099;BME280;37146;48.210;16.234;2022-11-20T10:12:51;98455.06;;;0.25;100.00
51099;BME280;37146;48.210;16.234;2022-11-20T10:25:30;98444.78;;;0.57;100.00
51099;BME280;37146;48.210;16.234;2022-11-20T10:30:41;98442.97;;;0.60;100.00
51099;BME280;37146;48.210;16.234;2022-11-20T10:33:17;98452.66;;;0.57;100.00
51099;BME280;37146;48.210;16.234;2022-11-20T10:38:18;98436.53;;;0.74;100.00
51099;BME280;37146;48.210;16.234;2022-11-20T10:40:49;98435.03;;;0.62;100.00
51099;BME280;37146;48.210;16.234;2022-11-20T10:45:55;98446.94;;;0.80;100.00
51099;BME280;37146;48.210;16.234;2022-11-20T10:48:25;98440.75;;;0.83;100.00
51099;BME280;37146;48.210;16.234;2022-11-20T10:53:28;98438.09;;;1.22;100.00
51099;BME280;37146;48.210;16.234;2022-11-20T10:55:58;98436.31;;;1.24;100.00
51099;BME280;37146;48.210;16.234;2022-11-20T10:58:29;98439.09;;;1.16;100.00
51099;BME280;37146;48.210;16.234;2022-11-20T11:01:11;98436.88;;;0.99;100.00
51099;BME280;37146;48.210;16.234;2022-11-20T11:03:38;98438.47;;;1.06;100.00
51099;BME280;37146;48.210;16.234;2022-11-20T11:06:07;98434.03;;;1.08;100.00
51099;BME280;37146;48.210;16.234;2022-11-20T11:08:40;98424.38;;;1.09;100.00
51099;BME280;37146;48.210;16.234;2022-11-20T11:11:27;98431.53;;;1.02;100.00
51099;BME280;37146;48.210;16.234;2022-11-20T11:13:50;98420.88;;;1.08;100.00
51099;BME280;37146;48.210;16.234;2022-11-20T11:16:23;98411.97;;;1.13;100.00
51099;BME280;37146;48.210;16.234;2022-11-20T11:18:48;98420.59;;;1.21;100.00
51099;BME280;37146;48.210;16.234;2022-11-20T11:21:19;98419.03;;;1.12;100.00
51099;BME280;37146;48.210;16.234;2022-11-20T11:23:46;98417.13;;;1.19;100.00
51099;BME280;37146;48.210;16.234;2022-11-20T11:26:22;98409.94;;;1.26;100.00
51099;BME280;37146;48.210;16.234;2022-11-20T11:28:58;98407.94;;;1.35;100.00
51099;BME280;37146;48.210;16.234;2022-11-20T11:31:27;98419.31;;;1.37;100.00
51099;BME280;37146;48.210;16.234;2022-11-20T11:34:03;98407.22;;;1.29;100.00
51099;BME280;37146;48.210;16.234;2022-11-20T11:36:28;98422.50;;;1.52;100.00
51099;BME280;37146;48.210;16.234;2022-11-20T11:38:54;98418.19;;;1.48;100.00
51099;BME280;37146;48.210;16.234;2022-11-20T11:41:20;98403.38;;;1.42;100.00
51099;BME280;37146;48.210;16.234;2022-11-20T11:43:57;98417.81;;;1.63;100.00
51099;BME280;37146;48.210;16.234;2022-11-20T11:46:52;98411.34;;;1.75;100.00
51099;BME280;37146;48.210;16.234;2022-11-20T11:49:19;98398.50;;;2.29;100.00
51099;BME280;37146;48.210;16.234;2022-11-20T11:54:25;98393.72;;;2.73;100.00
51099;BME280;37146;48.210;16.234;2022-11-20T11:56:53;98396.22;;;2.78;100.00
51099;BME280;37146;48.210;16.234;2022-11-20T11:59:22;98382.63;;;3.19;100.00
51099;BME280;37146;48.210;16.234;2022-11-20T12:01:52;98393.44;;;4.42;100.00
51099;BME280;37146;48.210;16.234;2022-11-20T12:07:08;98375.41;;;3.52;100.00
51099;BME280;37146;48.210;16.234;2022-11-20T12:09:37;98373.03;;;3.70;100.00
51099;BME280;37146;48.210;16.234;2022-11-20T12:12:08;98377.03;;;3.30;100.00
51099;BME280;37146;48.210;16.234;2022-11-20T12:14:36;98367.75;;;3.16;100.00
51099;BME280;37146;48.210;16.234;2022-11-20T12:17:02;98379.47;;;3.07;100.00
51099;BME280;37146;48.210;16.234;2022-11-20T12:19:28;98377.53;;;3.41;100.00
51099;BME280;37146;48.210;16.234;2022-11-20T12:24:52;98388.97;;;3.42;100.00
51099;BME280;37146;48.210;16.234;2022-11-20T12:39:58;98376.69;;;3.66;100.00
51099;BME280;37146;48.210;16.234;2022-11-20T12:50:22;98380.41;;;4.12;100.00
51099;BME280;37146;48.210;16.234;2022-11-20T12:52:53;98368.88;;;4.13;100.00
51099;BME280;37146;48.210;16.234;2022-11-20T12:55:43;98367.00;;;4.17;100.00
51099;BME280;37146;48.210;16.234;2022-11-20T13:00:58;98357.53;;;4.35;100.00
51099;BME280;37146;48.210;16.234;2022-11-20T13:05:51;98355.22;;;4.26;100.00
51099;BME280;37146;48.210;16.234;2022-11-20T13:08:36;98353.78;;;4.41;100.00
51099;BME280;37146;48.210;16.234;2022-11-20T13:11:15;98347.16;;;4.53;100.00
51099;BME280;37146;48.210;16.234;2022-11-20T13:19:03;98339.63;;;4.88;100.00
51099;BME280;37146;48.210;16.234;2022-11-20T13:24:04;98339.06;;;4.79;100.00
51099;BME280;37146;48.210;16.234;2022-11-20T13:26:29;98338.22;;;4.79;100.00
51099;BME280;37146;48.210;16.234;2022-11-20T13:31:41;98346.09;;;4.80;100.00
51099;BME280;37146;48.210;16.234;2022-11-20T13:34:09;98342.41;;;4.85;100.00
51099;BME280;37146;48.210;16.234;2022-11-20T13:36:37;98333.78;;;4.79;100.00
51099;BME280;37146;48.210;16.234;2022-11-20T13:39:23;98333.31;;;4.92;100.00
51099;BME280;37146;48.210;16.234;2022-11-20T13:41:53;98331.91;;;5.05;100.00
51099;BME280;37146;48.210;16.234;2022-11-20T13:47:02;98328.81;;;5.37;100.00
51099;BME280;37146;48.210;16.234;2022-11-20T13:49:38;98332.16;;;5.42;100.00
51099;BME280;37146;48.210;16.234;2022-11-20T13:57:20;98317.69;;;5.71;100.00
51099;BME280;37146;48.210;16.234;2022-11-20T13:59:58;98316.34;;;5.61;100.00
51099;BME280;37146;48.210;16.234;2022-11-20T14:02:27;98309.72;;;5.51;100.00
51099;BME280;37146;48.210;16.234;2022-11-20T14:04:54;98320.03;;;5.36;100.00
51099;BME280;37146;48.210;16.234;2022-11-20T14:07:21;98317.94;;;5.22;100.00
51099;BME280;37146;48.210;16.234;2022-11-20T14:09:51;98317.78;;;4.83;100.00
51099;BME280;37146;48.210;16.234;2022-11-20T14:12:18;98317.19;;;4.74;100.00